Salonica, Greece
Current Conditions -  °F | °C
As of 12:50 PM on Monday 20 Oct 2014 (Local Time) from LGTS Reporting Station
Few Clouds Few Clouds  
Wind Chill: 19°   Ceiling: Unl
Heat Index: 19°   Visibility: 6mi
Dew Point: 12°   Wind: 6mph
Humidity: 64%   Direction: 290°WNW
Pressure: 30.21"   Gusts: NA
Location:  40.52°N, 22.97°E
Report Text: LGTS 200950Z 29005KT 9999 FEW030 19/12 Q1023 NOSIG
Loading
Personal Weather Stations






























Interactive Weather Map
Tropical Storm Tracking
New forecast layout! Learn more

10-Day Weather Forecast

Advertisements
Track Severe Weather on mobile